Elliot Chaparral Reserve, California Weather observations

Data are for 10 minute period ending at time listed.
 Day   Time   Solar   Ave.   Ave.  Ave.  Vector  Max.   Baro.   Total    
  of    of     Rad.   Air    Rel.  Wind   Wind   Wind  Press.  Precip.   
Year   Day            Temp.  Hum.  Speed  Dir.   Gust                    
2014   (PST)  Kw/m2    F      %     mph   deg.    mph    mb.     in.     
-------------------------------------------------------------------------
 262   10:00   0.33   73.3    67    7.1   305    11.3   984.0    0.00 
 262   10:10   0.36   74.0    65    7.6   313    11.8   983.9    0.00 
 262   10:20   0.56   73.7    66    4.7   318     8.6   983.9    0.00 
 262   10:30   0.51   74.9    63    4.6   330     7.7   983.8    0.00 
 262   10:40   0.87   75.9    61    5.7   330    10.4   983.5    0.00 
 262   10:50   0.60   76.6    59    5.1   283    10.4   983.2    0.00 
 262   11:00   0.75   75.9    60    6.4   266    10.2   983.1    0.00 
 262   11:10   0.88   78.7    55    6.6   329    10.7   983.0    0.00 
 262   11:20   0.37   77.4    57    5.3   320     9.3   982.9    0.00 
 262   11:30   0.61   77.0    57    3.0   286    10.4   982.8    0.00 
 262   11:40   0.90   78.7    54   10.1   266    14.7   982.5    0.00 
 262   11:50   0.91   78.4    55    9.8   285    17.0   982.4    0.00 
 262   12:00   0.76   78.9    54   10.5   307    15.6   982.2    0.00 
 262   12:10   0.84   77.8    56   12.7   297    17.8   982.1    0.00 
 262   12:20   0.83   78.0    55   12.6   303    18.3   982.0    0.00 
 262   12:30   0.83   78.9    54   12.1   293    19.2   981.9    0.00 
 262   12:40   0.82   77.5    56   15.7   277    21.7   981.8    0.00 
 262   12:50   0.81   78.1    55   14.2   287    19.5   981.8    0.00 
 262   13:00   0.79   77.1    57   13.1   288    19.1   981.8    0.00 
 262   13:10   0.78   76.7    58   14.9   289    20.2   981.7    0.00 
 262   13:20   0.76   76.3    58   14.3   291    20.2   981.8    0.00 
 262   13:30   0.74   76.5    58   13.6   286    18.7   981.8    0.00 
 262   13:40   0.73   76.5    58   13.8   280    19.7   981.7    0.00 
 262   13:50   0.71   76.1    58   15.0   288    21.4   981.6    0.00 
 262   14:00   0.69   76.4    58   13.2   287    18.8   981.6    0.00 
 262   14:10   0.66   76.1    58   14.0   299    20.8   981.5    0.00 
 262   14:20   0.64   76.6    57   11.9   302    16.6   981.5    0.00 
 262   14:30   0.61   76.3    57   13.0   283    17.4   981.4    0.00 
 262   14:40   0.58   76.2    57   12.1   298    18.1   981.4    0.00 
 262   14:50   0.55   75.6    59   13.0   295    20.1   981.3    0.00 
 262   15:00   0.52   75.7    58   13.2   281    20.7   981.3    0.00 
 262   15:10   0.49   75.8    58   13.3   288    17.8   981.3    0.00 
 262   15:20   0.46   76.0    58   13.0   281    17.7   981.2    0.00 
 262   15:30   0.43   75.6    59   12.7   298    17.8   981.2    0.00 
 262   15:40   0.40   75.4    59   10.1   298    15.2   981.3    0.00 
 262   15:50   0.36   75.1    60   12.4   290    17.2   981.4    0.00 
 262   16:00   0.33   75.1    60   12.3   282    17.2   981.5    0.00 
 262   16:10   0.29   74.3    61   12.9   283    18.6   981.5    0.00 
 262   16:20   0.26   73.7    62   13.1   286    17.1   981.6    0.00 
 262   16:30   0.22   73.1    63   11.9   299    15.3   981.7    0.00 
 262   16:40   0.19   72.8    64   12.1   292    15.8   981.7    0.00 
 262   16:50   0.15   72.1    66   12.1   285    15.5   981.8    0.00 
 262   17:00   0.12   71.6    67   11.1   287    15.2   981.8    0.00 
 262   17:10   0.09   71.7    66    9.6   305    12.9   981.9    0.00 
 262   17:20   0.07   71.3    67    9.7   298    15.6   982.0    0.00 
 262   17:30   0.04   70.6    69    9.5   294    13.4   982.2    0.00 
 262   17:40   0.02   69.5    71    9.2   300    13.2   982.3    0.00 
 262   17:50   0.00   68.5    74    9.3   301    12.9   982.4    0.00 
 262   18:00   0.00   67.6    76    9.0   309    11.5   982.4    0.00 
 262   18:10   0.00   67.3    77    6.5   314     9.6   982.4    0.00 
 262   18:20   0.00   67.0    78    7.0   304     9.9   982.5    0.00 
 262   18:30   0.00   66.7    78    6.9   304     9.8   982.4    0.00 
 262   18:40   0.00   66.4    78    7.6   303    10.1   982.4    0.00 
 262   18:50   0.00   66.3    79    6.9   314     9.3   982.5    0.00 
 262   19:00   0.00   66.2    80    8.2   316    10.7   982.6    0.00 
 262   19:10   0.00   66.1    80    8.8   312    11.5   982.7    0.00 
 262   19:20   0.00   66.0    81    7.6   312    10.5   982.8    0.00 
 262   19:30   0.00   65.9    81    7.0   314     9.2   983.0    0.00 
 262   19:40   0.00   65.8    82    7.4   311     9.7   983.1    0.00 
 262   19:50   0.00   65.6    82    6.9   310     9.3   983.1    0.00 
 262   20:00   0.00   65.4    82    5.7   306     8.6   983.2    0.00 
 262   20:10   0.00   65.3    83    5.8   303     8.4   983.2    0.00 
 262   20:20   0.00   65.1    84    4.0   303     6.0   983.3    0.00 
 262   20:30   0.00   64.9    84    5.2   308     7.5   983.4    0.00 
 262   20:40   0.00   65.0    84    3.9   298     5.6   983.5    0.00 
 262   20:50   0.00   64.8    85    5.4   296     7.7   983.5    0.00 
 262   21:00   0.00   64.8    86    5.5   297     6.6   983.5    0.00 
 262   21:10   0.00   64.9    86    4.9   302     5.9   983.6    0.00 
 262   21:20   0.00   64.7    86    4.9   294     6.9   983.7    0.00 
 262   21:30   0.00   64.8    86    5.4   296     7.1   983.7    0.00 
 262   21:40   0.00   64.8    86    5.3   300     6.2   983.8    0.00 
 262   21:50   0.00   64.7    86    5.4   297     6.3   983.9    0.00 
 262   22:00   0.00   64.7    86    5.4   297     6.7   984.0    0.00 
 262   22:10   0.00   64.8    86    4.1   297     5.3   984.1    0.00 
 262   22:20   0.00   64.9    86    3.0   292     4.2   984.1    0.00 
 262   22:30   0.00   65.3    85    2.5   292     3.8   984.2    0.00 
 262   22:40   0.00   65.8    84    0.8   299     2.1   984.2    0.00 
 262   22:50   0.00   65.9    83    0.7    99     1.3   984.2    0.00 
 262   23:00   0.00   66.0    83    1.0    69     1.8   984.2    0.00 
 262   23:10   0.00   66.2    83    0.9   100     2.3   984.2    0.00 
 262   23:20   0.00   66.3    82    2.2   122     2.8   984.3    0.00 
 262   23:30   0.00   66.3    81    2.1   120     2.6   984.3    0.00 
 262   23:40   0.00   66.4    82    2.3   114     3.3   984.4    0.00 
 262   23:50   0.00   66.4    82    2.3    86     3.1   984.4    0.00 
 263    0:00   0.00   66.5    82    2.3   106     3.1   984.4    0.00 
 263    0:10   0.00   66.5    82    2.9   120     3.9   984.3    0.00 
 263    0:20   0.00   66.7    81    2.9   126     3.8   984.4    0.00 
 263    0:30   0.00   66.7    81    3.2   118     3.9   984.4    0.00 
 263    0:40   0.00   66.7    81    3.8   118     5.8   984.4    0.00 
 263    0:50   0.00   66.6    81    4.2   110     6.3   984.3    0.00 
 263    1:00   0.00   66.6    81    3.6   124     4.5   984.2    0.00 
 263    1:10   0.00   66.6    81    2.6   128     4.3   984.1    0.00 
 263    1:20   0.00   66.5    81    2.1    74     3.6   984.0    0.00 
 263    1:30   0.00   66.6    81    2.2   345     4.2   984.0    0.00 
 263    1:40   0.00   66.5    81    2.7    40     4.2   984.0    0.00 
 263    1:50   0.00   66.5    81    2.2    88     4.0   984.0    0.00 
 263    2:00   0.00   66.6    80    4.3   112     6.0   984.0    0.00 
 263    2:10   0.00   66.5    80    3.8   111     4.7   984.1    0.00 
 263    2:20   0.00   66.5    80    2.9   105     4.2   984.0    0.00 
 263    2:30   0.00   66.5    80    4.2   137     6.4   983.9    0.00 
 263    2:40   0.00   66.4    80    2.7   166     6.9   983.9    0.00 
 263    2:50   0.00   66.5    80    1.8   120     3.9   983.9    0.00 
 263    3:00   0.00   66.5    79    5.0   122     9.7   983.8    0.00 
 263    3:10   0.00   66.4    80    4.9   182     8.7   983.7    0.00 
 263    3:20   0.00   66.4    80    4.5   186     8.6   983.7    0.00 
 263    3:30   0.00   66.5    80    2.8   151     5.0   983.7    0.00 
 263    3:40   0.00   66.6    79    2.3   145     3.4   983.8    0.00 
 263    3:50   0.00   66.9    79    1.4   112     3.4   983.9    0.00 
 263    4:00   0.00   66.7    79    3.0   111     4.8   983.9    0.00 
 263    4:10   0.00   66.6    80    3.7   122     5.8   983.9    0.00 
 263    4:20   0.00   66.7    80    4.5   124     6.1   983.9    0.00 
 263    4:30   0.00   66.5    80    3.7   117     7.6   984.0    0.00 
 263    4:40   0.00   66.6    80    3.3   178     6.9   984.0    0.00 
 263    4:50   0.00   66.5    80    4.4   176     8.0   984.0    0.00 
 263    5:00   0.00   66.5    80    5.2   168     8.4   984.1    0.00 
 263    5:10   0.00   66.5    80    3.4   191     5.3   984.3    0.00 
 263    5:20   0.00   66.5    80    2.9   235     5.6   984.4    0.00 
 263    5:30   0.00   66.6    80    3.0   207     5.6   984.4    0.00 
 263    5:40   0.00   66.5    80    2.2   168     6.0   984.5    0.00 
 263    5:50   0.00   66.7    80    1.4   210     4.4   984.6    0.00 
 263    6:00   0.00   66.7    80    4.0   199     6.4   984.6    0.00 
 263    6:10   0.00   66.8    80    2.7   212     4.9   984.7    0.00 
 263    6:20   0.00   66.9    79    2.0   210     3.7   984.7    0.00 
 263    6:30   0.01   67.0    79    2.7   194     3.9   984.9    0.00 
 263    6:40   0.01   67.0    79    2.0   172     3.2   984.9    0.00 
 263    6:50   0.02   67.2    78    1.0   199     2.0   985.0    0.00 
 263    7:00   0.03   67.5    78    0.5   258     1.9   985.0    0.00 
 263    7:10   0.03   67.6    77    1.7   246     3.1   985.2    0.00 
 263    7:20   0.04   67.8    77    2.5   184     4.1   985.2    0.00 
 263    7:30   0.05   67.9    76    2.1   189     4.1   985.2    0.00 
 263    7:40   0.06   67.8    77    3.6   267     4.8   985.2    0.00 
 263    7:50   0.07   67.9    76    3.4   259     6.1   985.2    0.00 
 263    8:00   0.07   68.1    76    3.0   292     5.1   985.4    0.00 
 263    8:10   0.08   68.3    76    2.9   252     5.1   985.4    0.00 
 263    8:20   0.09   68.8    74    2.6   269     4.3   985.4    0.00 
 263    8:30   0.12   68.9    74    2.8   248     5.0   985.4    0.00 
 263    8:40   0.16   69.6    73    1.6   277     3.5   985.5    0.00 
 263    8:50   0.17   70.0    72    2.5   290     4.9   985.6    0.00 
 263    9:00   0.20   70.4    71    1.6   240     4.4   985.6    0.00 
 263    9:10   0.23   70.8    70    2.4   230     4.2   985.6    0.00 
 263    9:20   0.30   71.4    68    2.6   137     4.8   985.5    0.00 
 263    9:30   0.69   72.7    66    1.2   156     3.5   985.5    0.00 
 263    9:40   0.40   72.8    65    2.4   252     6.7   985.3    0.00 
 263    9:50   0.53   72.3    66    2.5   323     8.2   985.3    0.00 

Return to Elliot Chaparral Reserve graphs page.


Western Regional Climate Center,wrcc@dri.edu